Time;durP1;ratioP1;P1;durP2;ratioP2;P2;SDS_P1;SDS_P2;PMS_P1;PMS_P2;Temp;Humidity;BMP_temperature;BMP_pressure;BME280_temperature;BME280_humidity;BME280_pressure;Samples;Min_cycle;Max_cycle;Signal;HPM_P1;HPM_P2
2024/04/24 00:01:44;;;;;;;;;;;17.90;67.30;;;;;;5415847;26;1729;-69
2024/04/24 00:04:09;;;;;;;;;;;17.90;67.30;;;;;;5364132;26;2003;-69
2024/04/24 00:06:35;;;;;;;;;;;17.90;67.30;;;;;;5386282;26;1888;-70
2024/04/24 00:09:00;;;;;;;;;;;17.90;68.10;;;;;;5393391;26;1866;-70
2024/04/24 00:11:26;;;;;;;;;;;17.90;67.40;;;;;;5364645;26;1972;-69
2024/04/24 00:13:51;;;;;;;;;;;17.90;67.40;;;;;;5362017;26;1417;-70
2024/04/24 00:16:17;;;;;;;;;;;17.90;67.40;;;;;;5397948;26;1531;-70
2024/04/24 00:18:42;;;;;;;;;;;17.90;67.40;;;;;;5398372;26;1546;-70
2024/04/24 00:21:10;;;;;;;;;;;17.90;67.40;;;;;;5379170;26;1850;-70
2024/04/24 00:23:35;;;;;;;;;;;17.90;67.40;;;;;;5398358;26;1133;-70
2024/04/24 00:26:01;;;;;;;;;;;17.90;67.40;;;;;;5421356;26;1037;-70
2024/04/24 00:28:26;;;;;;;;;;;17.90;67.40;;;;;;5360965;26;1948;-69
2024/04/24 00:31:01;;;;;;;;;;;17.90;67.40;;;;;;5365431;26;1408;-70
2024/04/24 00:33:26;;;;;;;;;;;17.90;67.40;;;;;;5395973;26;1828;-70
2024/04/24 00:35:52;;;;;;;;;;;17.90;67.50;;;;;;5394799;26;1579;-69
2024/04/24 00:38:17;;;;;;;;;;;17.90;67.50;;;;;;5391763;26;1753;-69
2024/04/24 00:40:43;;;;;;;;;;;17.90;67.50;;;;;;5393487;26;1776;-69
2024/04/24 00:43:08;;;;;;;;;;;17.90;67.50;;;;;;5397199;26;1826;-69
2024/04/24 00:45:34;;;;;;;;;;;17.90;67.50;;;;;;5370460;26;1645;-69
2024/04/24 00:47:59;;;;;;;;;;;17.90;67.50;;;;;;5367856;26;2210;-69
2024/04/24 00:50:25;;;;;;;;;;;17.90;67.50;;;;;;5397994;26;2008;-69
2024/04/24 00:52:50;;;;;;;;;;;17.90;67.50;;;;;;5398241;26;1864;-69
2024/04/24 00:55:16;;;;;;;;;;;17.90;67.50;;;;;;5362227;26;1778;-69
2024/04/24 00:57:41;;;;;;;;;;;17.90;67.50;;;;;;5340767;26;2135;-69
2024/04/24 01:00:07;;;;;;;;;;;17.90;67.50;;;;;;5377829;26;1460;-69
2024/04/24 01:02:32;;;;;;;;;;;17.90;67.50;;;;;;5367814;26;1789;-69
2024/04/24 01:04:58;;;;;;;;;;;17.90;67.50;;;;;;5364026;26;1876;-70
2024/04/24 01:07:23;;;;;;;;;;;17.90;67.50;;;;;;5395875;26;1880;-69
2024/04/24 01:09:49;;;;;;;;;;;17.90;67.60;;;;;;5394816;26;1986;-69
2024/04/24 01:12:14;;;;;;;;;;;17.90;67.60;;;;;;5398555;26;1488;-69
2024/04/24 01:14:39;;;;;;;;;;;17.90;67.60;;;;;;5394320;26;1862;-70
2024/04/24 01:17:08;;;;;;;;;;;17.80;67.50;;;;;;5395190;26;1738;-70
2024/04/24 01:19:40;;;;;;;;;;;17.90;67.60;;;;;;5380384;26;1719;-69
2024/04/24 01:22:24;;;;;;;;;;;17.90;68.30;;;;;;5363442;26;1764;-69
2024/04/24 01:24:52;;;;;;;;;;;17.90;67.60;;;;;;5389350;26;1941;-69
2024/04/24 01:27:17;;;;;;;;;;;17.80;67.60;;;;;;5380528;26;1867;-69
2024/04/24 01:29:42;;;;;;;;;;;17.80;67.60;;;;;;5361483;26;1410;-69
2024/04/24 01:32:08;;;;;;;;;;;17.80;67.60;;;;;;5361896;26;1602;-70
2024/04/24 01:34:33;;;;;;;;;;;17.90;67.60;;;;;;5392375;26;1778;-69
2024/04/24 01:36:59;;;;;;;;;;;17.80;67.60;;;;;;5364149;26;2145;-69
2024/04/24 01:39:24;;;;;;;;;;;17.80;67.60;;;;;;5392221;26;1698;-70
2024/04/24 01:41:50;;;;;;;;;;;17.80;67.60;;;;;;5391778;26;1746;-70
2024/04/24 01:44:15;;;;;;;;;;;17.80;67.60;;;;;;5394532;26;1607;-70
2024/04/24 01:46:41;;;;;;;;;;;17.80;67.60;;;;;;5394886;26;1834;-69
2024/04/24 01:49:06;;;;;;;;;;;17.80;67.60;;;;;;5393312;26;1751;-69
2024/04/24 01:51:32;;;;;;;;;;;17.80;67.60;;;;;;5361409;26;1966;-69
2024/04/24 01:53:57;;;;;;;;;;;17.80;67.60;;;;;;5389945;26;1722;-69
2024/04/24 01:56:23;;;;;;;;;;;17.80;67.60;;;;;;5366729;26;1907;-69
2024/04/24 01:58:48;;;;;;;;;;;17.80;67.60;;;;;;5361286;26;1477;-69
2024/04/24 02:01:14;;;;;;;;;;;17.90;67.70;;;;;;5395151;26;1542;-69
2024/04/24 02:03:39;;;;;;;;;;;17.80;67.60;;;;;;5395841;26;1878;-69
2024/04/24 02:06:05;;;;;;;;;;;17.80;67.60;;;;;;5391947;26;1862;-69
2024/04/24 02:08:33;;;;;;;;;;;17.80;67.60;;;;;;5366249;26;1952;-69
2024/04/24 02:10:59;;;;;;;;;;;17.80;67.70;;;;;;5390564;26;1845;-69
2024/04/24 02:13:24;;;;;;;;;;;17.80;67.70;;;;;;5396321;26;2068;-70
2024/04/24 02:15:50;;;;;;;;;;;17.80;67.70;;;;;;5366052;26;1776;-69
2024/04/24 02:18:16;;;;;;;;;;;17.80;67.70;;;;;;5420400;26;1943;-70
2024/04/24 02:20:41;;;;;;;;;;;17.80;67.70;;;;;;5378331;26;1759;-70
2024/04/24 02:23:07;;;;;;;;;;;17.80;67.70;;;;;;5366762;26;1907;-70
2024/04/24 02:25:36;;;;;;;;;;;17.80;67.70;;;;;;5393996;26;1924;-70
2024/04/24 02:28:08;;;;;;;;;;;17.80;67.70;;;;;;5388478;26;1822;-70
2024/04/24 02:30:33;;;;;;;;;;;17.80;67.70;;;;;;5418812;26;1513;-70
2024/04/24 02:32:59;;;;;;;;;;;17.80;67.70;;;;;;5366534;26;1956;-70
2024/04/24 02:35:24;;;;;;;;;;;17.80;67.70;;;;;;5392791;26;1833;-70
2024/04/24 02:37:50;;;;;;;;;;;17.80;67.70;;;;;;5364619;26;1926;-70
2024/04/24 02:40:15;;;;;;;;;;;17.80;67.70;;;;;;5359910;26;1888;-70
2024/04/24 02:42:41;;;;;;;;;;;17.80;67.80;;;;;;5361023;26;1951;-70
2024/04/24 02:45:06;;;;;;;;;;;17.80;67.70;;;;;;5414892;26;2026;-70
2024/04/24 02:47:32;;;;;;;;;;;17.80;67.70;;;;;;5392461;26;1956;-70
2024/04/24 02:49:57;;;;;;;;;;;17.80;67.80;;;;;;5392049;26;1831;-70
2024/04/24 02:52:23;;;;;;;;;;;17.80;67.80;;;;;;5398299;26;1847;-70
2024/04/24 02:54:48;;;;;;;;;;;17.80;67.80;;;;;;5393649;26;1246;-70
2024/04/24 02:57:13;;;;;;;;;;;17.80;67.80;;;;;;5393558;26;1887;-70
2024/04/24 02:59:42;;;;;;;;;;;17.80;67.80;;;;;;5388897;26;1734;-70
2024/04/24 03:02:07;;;;;;;;;;;17.80;67.80;;;;;;5391473;26;1834;-71
2024/04/24 03:04:33;;;;;;;;;;;17.80;67.80;;;;;;5391689;26;1835;-69
2024/04/24 03:06:58;;;;;;;;;;;17.80;67.80;;;;;;5389180;26;1864;-67
2024/04/24 03:09:24;;;;;;;;;;;17.80;67.80;;;;;;5395523;26;1990;-67
2024/04/24 03:11:49;;;;;;;;;;;17.80;67.80;;;;;;5392569;26;1300;-68
2024/04/24 03:14:18;;;;;;;;;;;17.80;67.80;;;;;;5389366;26;1792;-69
2024/04/24 03:16:44;;;;;;;;;;;17.80;67.80;;;;;;5391543;26;1458;-69
2024/04/24 03:19:09;;;;;;;;;;;17.80;67.80;;;;;;5418015;26;1975;-69
2024/04/24 03:21:34;;;;;;;;;;;17.80;67.80;;;;;;5396008;26;1962;-69
2024/04/24 03:24:00;;;;;;;;;;;17.80;67.80;;;;;;5394965;26;1976;-69
2024/04/24 03:26:25;;;;;;;;;;;17.80;67.90;;;;;;5393227;26;2128;-69
2024/04/24 03:28:51;;;;;;;;;;;17.80;67.80;;;;;;5361711;26;1760;-69
2024/04/24 03:31:16;;;;;;;;;;;17.80;67.80;;;;;;5395353;26;1890;-69
2024/04/24 03:33:42;;;;;;;;;;;17.80;67.50;;;;;;5389894;26;1482;-68
2024/04/24 03:36:07;;;;;;;;;;;17.80;67.80;;;;;;5425402;26;1887;-68
2024/04/24 03:38:33;;;;;;;;;;;17.80;67.80;;;;;;5393395;26;2089;-69
2024/04/24 03:40:58;;;;;;;;;;;17.80;67.90;;;;;;5399400;26;1317;-68
2024/04/24 03:43:24;;;;;;;;;;;17.80;67.90;;;;;;5391168;26;1269;-68
2024/04/24 03:45:49;;;;;;;;;;;17.80;67.80;;;;;;5393904;26;1865;-68
2024/04/24 03:48:14;;;;;;;;;;;17.80;67.90;;;;;;5395665;26;1899;-67
2024/04/24 03:50:40;;;;;;;;;;;17.80;67.90;;;;;;5395151;26;1299;-68
2024/04/24 03:53:05;;;;;;;;;;;17.80;67.90;;;;;;5395504;26;1946;-69
2024/04/24 03:55:31;;;;;;;;;;;17.80;67.90;;;;;;5391916;26;1870;-69
2024/04/24 03:57:56;;;;;;;;;;;17.80;67.90;;;;;;5399846;26;2020;-68
2024/04/24 04:00:22;;;;;;;;;;;17.80;67.90;;;;;;5394955;26;1414;-69
2024/04/24 04:02:47;;;;;;;;;;;17.80;67.90;;;;;;5379587;26;1544;-69
2024/04/24 04:05:13;;;;;;;;;;;17.80;67.90;;;;;;5393541;26;1412;-71
2024/04/24 04:07:38;;;;;;;;;;;17.80;67.90;;;;;;5400654;26;1818;-70
2024/04/24 04:10:04;;;;;;;;;;;17.80;67.90;;;;;;5397206;26;1938;-71
2024/04/24 04:12:29;;;;;;;;;;;17.80;67.80;;;;;;5363978;26;1964;-69
2024/04/24 04:14:54;;;;;;;;;;;17.80;67.80;;;;;;5390361;26;1852;-69
2024/04/24 04:17:20;;;;;;;;;;;17.80;67.70;;;;;;5395261;26;1841;-71
2024/04/24 04:19:45;;;;;;;;;;;17.90;67.60;;;;;;5380155;26;1912;-69
2024/04/24 04:22:11;;;;;;;;;;;17.90;67.50;;;;;;5396443;26;1771;-70
2024/04/24 04:24:36;;;;;;;;;;;17.90;67.30;;;;;;5395824;26;1878;-68
2024/04/24 04:27:02;;;;;;;;;;;17.90;67.30;;;;;;5365277;26;1823;-69
2024/04/24 04:29:27;;;;;;;;;;;18.00;67.20;;;;;;5393549;26;1806;-69
2024/04/24 04:31:53;;;;;;;;;;;18.00;67.10;;;;;;5394800;26;1429;-70
2024/04/24 04:34:18;;;;;;;;;;;18.10;67.00;;;;;;5395945;26;1785;-70
2024/04/24 04:36:44;;;;;;;;;;;18.10;66.90;;;;;;5394629;26;1768;-70
2024/04/24 04:39:09;;;;;;;;;;;18.10;66.80;;;;;;5396964;26;1858;-70
2024/04/24 04:41:35;;;;;;;;;;;18.10;66.70;;;;;;5395870;26;1861;-70
2024/04/24 04:44:00;;;;;;;;;;;18.20;66.70;;;;;;5391455;26;2179;-69
2024/04/24 04:46:25;;;;;;;;;;;18.20;66.60;;;;;;5395014;26;2065;-69
2024/04/24 04:48:51;;;;;;;;;;;18.20;66.50;;;;;;5388246;26;1535;-69
2024/04/24 04:51:16;;;;;;;;;;;18.20;66.40;;;;;;5390080;26;1765;-69
2024/04/24 04:53:43;;;;;;;;;;;18.20;66.30;;;;;;5397169;26;1872;-70
2024/04/24 04:56:08;;;;;;;;;;;18.20;66.30;;;;;;5396209;26;2001;-69
2024/04/24 04:58:34;;;;;;;;;;;18.20;67.00;;;;;;5342195;26;2134;-69
2024/04/24 05:00:59;;;;;;;;;;;18.30;66.20;;;;;;5397491;26;1653;-70
2024/04/24 05:03:25;;;;;;;;;;;18.30;66.10;;;;;;5401036;26;1742;-70
2024/04/24 05:05:50;;;;;;;;;;;18.30;66.10;;;;;;5394511;26;1631;-70
2024/04/24 05:08:16;;;;;;;;;;;18.30;66.10;;;;;;5395159;26;1843;-70
2024/04/24 05:10:41;;;;;;;;;;;18.30;66.00;;;;;;5396653;26;1531;-70
2024/04/24 05:13:11;;;;;;;;;;;18.30;66.00;;;;;;5392057;26;1221;-70
2024/04/24 05:15:36;;;;;;;;;;;18.40;66.00;;;;;;5395502;26;1821;-70
2024/04/24 05:18:05;;;;;;;;;;;18.30;65.90;;;;;;5390219;26;2317;-72
2024/04/24 05:20:30;;;;;;;;;;;18.40;65.90;;;;;;5392339;26;2156;-69
2024/04/24 05:23:00;;;;;;;;;;;18.40;65.90;;;;;;5393107;26;1495;-70
2024/04/24 05:25:28;;;;;;;;;;;18.40;65.90;;;;;;5418005;26;1768;-75
2024/04/24 05:30:37;;;;;;;;;;;18.40;65.80;;;;;;5370829;26;1750;-74
2024/04/24 05:33:03;;;;;;;;;;;18.40;65.80;;;;;;5391174;26;1914;-71
2024/04/24 05:35:28;;;;;;;;;;;18.40;65.80;;;;;;5365917;26;1509;-71
2024/04/24 05:37:54;;;;;;;;;;;18.40;65.80;;;;;;5331652;26;1370;-71
2024/04/24 05:40:19;;;;;;;;;;;18.30;65.70;;;;;;5397268;26;1555;-70
2024/04/24 05:42:45;;;;;;;;;;;18.40;65.80;;;;;;5396770;26;1894;-71
2024/04/24 05:45:10;;;;;;;;;;;18.40;65.80;;;;;;5363469;26;1776;-72
2024/04/24 05:47:36;;;;;;;;;;;18.40;65.80;;;;;;5361729;26;2118;-75
2024/04/24 05:50:01;;;;;;;;;;;18.30;65.80;;;;;;5399473;26;1667;-74
2024/04/24 05:52:27;;;;;;;;;;;18.30;65.70;;;;;;5393610;26;1861;-75
2024/04/24 05:54:52;;;;;;;;;;;18.40;65.80;;;;;;5338126;26;1906;-75
2024/04/24 05:57:18;;;;;;;;;;;18.30;65.80;;;;;;5364666;26;1588;-71
2024/04/24 05:59:43;;;;;;;;;;;18.40;65.80;;;;;;5395130;26;1589;-70
2024/04/24 06:02:09;;;;;;;;;;;18.30;65.80;;;;;;5387897;26;1930;-70
2024/04/24 06:04:34;;;;;;;;;;;18.40;65.90;;;;;;5393462;26;1688;-70
2024/04/24 06:06:59;;;;;;;;;;;18.40;65.90;;;;;;5390781;26;1970;-70
2024/04/24 06:09:25;;;;;;;;;;;18.40;65.90;;;;;;5395355;26;1915;-69
2024/04/24 06:11:52;;;;;;;;;;;18.40;65.90;;;;;;5367616;26;1909;-74
2024/04/24 06:14:17;;;;;;;;;;;18.40;65.90;;;;;;5395755;26;1930;-72
2024/04/24 06:16:44;;;;;;;;;;;18.40;66.00;;;;;;5396266;26;1887;-72
2024/04/24 06:19:10;;;;;;;;;;;18.30;65.90;;;;;;5392876;26;1462;-69
2024/04/24 06:21:35;;;;;;;;;;;18.40;66.00;;;;;;5393916;26;1754;-70
2024/04/24 06:24:01;;;;;;;;;;;18.30;66.00;;;;;;5421101;26;1891;-72
2024/04/24 06:26:26;;;;;;;;;;;18.30;65.90;;;;;;5391719;26;1888;-71
2024/04/24 06:28:51;;;;;;;;;;;18.30;66.00;;;;;;5395215;26;1606;-71
2024/04/24 06:31:17;;;;;;;;;;;18.30;66.00;;;;;;5368731;26;1790;-72
2024/04/24 06:33:42;;;;;;;;;;;18.30;66.00;;;;;;5392204;26;1509;-71
2024/04/24 06:36:08;;;;;;;;;;;18.30;66.00;;;;;;5390026;26;2003;-71
2024/04/24 06:38:34;;;;;;;;;;;18.30;66.00;;;;;;5363697;26;1873;-70
2024/04/24 06:40:59;;;;;;;;;;;18.30;66.00;;;;;;5391487;26;1908;-71
2024/04/24 06:43:25;;;;;;;;;;;18.30;66.10;;;;;;5392151;26;1848;-70
2024/04/24 06:45:50;;;;;;;;;;;18.30;66.10;;;;;;5402026;26;1938;-72
2024/04/24 06:48:15;;;;;;;;;;;18.30;66.10;;;;;;5395871;26;1901;-71
2024/04/24 06:50:41;;;;;;;;;;;18.30;66.10;;;;;;5393180;26;1429;-71
2024/04/24 06:53:06;;;;;;;;;;;18.30;66.10;;;;;;5388696;26;1803;-70
2024/04/24 06:55:32;;;;;;;;;;;18.30;66.10;;;;;;5391308;26;2079;-71
2024/04/24 06:57:57;;;;;;;;;;;18.30;66.10;;;;;;5341037;26;2120;-71
2024/04/24 07:00:24;;;;;;;;;;;18.30;66.10;;;;;;5359310;26;2071;-71
2024/04/24 07:02:50;;;;;;;;;;;18.30;66.20;;;;;;5392750;26;1794;-74
2024/04/24 07:05:15;;;;;;;;;;;18.30;66.20;;;;;;5345923;26;1926;-74
2024/04/24 07:07:41;;;;;;;;;;;18.30;66.20;;;;;;5363410;26;2076;-75
2024/04/24 07:10:06;;;;;;;;;;;18.30;66.20;;;;;;5423985;26;1881;-74
2024/04/24 07:12:32;;;;;;;;;;;18.30;66.20;;;;;;5364141;26;1964;-73
2024/04/24 07:14:57;;;;;;;;;;;18.30;66.20;;;;;;5391864;26;1836;-73
2024/04/24 07:17:23;;;;;;;;;;;18.30;66.20;;;;;;5393105;26;2060;-73
2024/04/24 07:19:48;;;;;;;;;;;18.30;66.20;;;;;;5395258;26;1741;-73
2024/04/24 07:22:14;;;;;;;;;;;18.20;66.20;;;;;;5397884;26;1424;-74
2024/04/24 07:24:39;;;;;;;;;;;18.30;66.20;;;;;;5398297;26;1337;-73
2024/04/24 07:27:05;;;;;;;;;;;18.30;67.00;;;;;;5366889;26;1882;-71
2024/04/24 07:29:30;;;;;;;;;;;18.30;66.20;;;;;;5397936;26;1788;-72
2024/04/24 07:31:56;;;;;;;;;;;18.30;66.20;;;;;;5424852;26;1999;-73
2024/04/24 07:34:21;;;;;;;;;;;18.30;66.10;;;;;;5399650;26;1646;-73
2024/04/24 07:36:47;;;;;;;;;;;18.30;66.10;;;;;;5423238;26;1869;-73
2024/04/24 07:39:12;;;;;;;;;;;18.30;66.00;;;;;;5393410;26;1653;-73
2024/04/24 07:41:38;;;;;;;;;;;18.30;66.10;;;;;;5390714;26;1867;-73
2024/04/24 07:44:03;;;;;;;;;;;18.40;66.00;;;;;;5392808;26;1553;-73
2024/04/24 07:46:29;;;;;;;;;;;18.40;66.00;;;;;;5392837;26;1849;-73
2024/04/24 07:48:54;;;;;;;;;;;18.40;66.00;;;;;;5392320;26;1520;-73
2024/04/24 07:51:20;;;;;;;;;;;18.40;65.90;;;;;;5396536;26;1955;-73
2024/04/24 07:53:45;;;;;;;;;;;18.30;65.80;;;;;;5360859;26;1819;-73
2024/04/24 07:56:10;;;;;;;;;;;18.40;65.80;;;;;;5396671;26;1412;-73
2024/04/24 07:58:36;;;;;;;;;;;18.40;65.80;;;;;;5367997;26;1448;-73
2024/04/24 08:01:01;;;;;;;;;;;18.40;65.80;;;;;;5356734;26;1419;-73
2024/04/24 08:03:27;;;;;;;;;;;18.40;65.80;;;;;;5394653;26;2070;-73
2024/04/24 08:05:53;;;;;;;;;;;18.40;65.70;;;;;;5385167;26;2120;-73
2024/04/24 08:08:18;;;;;;;;;;;18.40;65.70;;;;;;5388377;26;1864;-73
2024/04/24 08:10:44;;;;;;;;;;;18.40;65.70;;;;;;5420113;26;1148;-73
2024/04/24 08:13:10;;;;;;;;;;;18.40;65.70;;;;;;5420117;26;965;-73
2024/04/24 08:15:36;;;;;;;;;;;18.40;65.60;;;;;;5399399;26;1497;-73
2024/04/24 08:18:01;;;;;;;;;;;18.40;65.60;;;;;;5393221;26;1280;-73
2024/04/24 08:20:27;;;;;;;;;;;18.40;65.60;;;;;;5396334;26;1486;-73
2024/04/24 08:22:52;;;;;;;;;;;18.40;65.60;;;;;;5342860;26;1535;-73
2024/04/24 08:25:18;;;;;;;;;;;18.50;65.60;;;;;;5396475;26;1496;-73
2024/04/24 08:27:43;;;;;;;;;;;18.50;65.70;;;;;;5363275;26;1871;-73
2024/04/24 08:30:10;;;;;;;;;;;18.40;65.60;;;;;;5395557;26;1730;-73
2024/04/24 08:32:35;;;;;;;;;;;18.50;65.60;;;;;;5362135;26;2034;-73
2024/04/24 08:35:01;;;;;;;;;;;18.50;65.60;;;;;;5417574;26;1906;-73
2024/04/24 08:37:26;;;;;;;;;;;18.50;65.60;;;;;;5369199;26;1887;-73
2024/04/24 08:39:52;;;;;;;;;;;18.50;65.60;;;;;;5393234;26;1811;-73
2024/04/24 08:42:17;;;;;;;;;;;18.50;65.60;;;;;;5391052;26;1893;-73
2024/04/24 08:44:43;;;;;;;;;;;18.50;65.70;;;;;;5370321;26;1824;-73
2024/04/24 08:47:08;;;;;;;;;;;18.50;65.70;;;;;;5390164;26;1892;-73
2024/04/24 08:49:34;;;;;;;;;;;18.50;65.70;;;;;;5379884;26;1780;-73
2024/04/24 08:52:00;;;;;;;;;;;18.40;65.60;;;;;;5420146;26;1807;-73
2024/04/24 08:54:25;;;;;;;;;;;18.50;65.70;;;;;;5380646;26;1510;-73
2024/04/24 08:56:59;;;;;;;;;;;18.40;65.60;;;;;;5359358;26;2017;-73
2024/04/24 08:59:35;;;;;;;;;;;18.50;65.70;;;;;;5355053;26;1807;-73
2024/04/24 09:02:01;;;;;;;;;;;18.50;65.70;;;;;;5419505;26;1763;-73
2024/04/24 09:04:27;;;;;;;;;;;18.40;65.70;;;;;;5404194;26;1917;-73
2024/04/24 09:06:52;;;;;;;;;;;18.40;65.70;;;;;;5364770;26;1829;-73
2024/04/24 09:09:17;;;;;;;;;;;18.40;65.70;;;;;;5390989;26;2167;-73
2024/04/24 09:11:43;;;;;;;;;;;18.40;65.70;;;;;;5397184;26;1899;-73
2024/04/24 09:14:09;;;;;;;;;;;18.40;65.70;;;;;;5371389;26;1414;-73
2024/04/24 09:16:34;;;;;;;;;;;18.40;65.70;;;;;;5419590;26;1856;-71
2024/04/24 09:19:00;;;;;;;;;;;18.40;65.80;;;;;;5419328;26;1907;-73
2024/04/24 09:21:27;;;;;;;;;;;18.40;65.70;;;;;;5427354;26;1820;-72
2024/04/24 09:23:52;;;;;;;;;;;18.40;65.80;;;;;;5367877;26;2456;-72
2024/04/24 09:26:18;;;;;;;;;;;18.40;65.80;;;;;;5359602;26;1871;-72
2024/04/24 09:28:45;;;;;;;;;;;18.40;66.00;;;;;;5360655;26;1887;-72
2024/04/24 09:31:11;;;;;;;;;;;18.40;65.80;;;;;;5396416;26;2000;-72
2024/04/24 09:33:36;;;;;;;;;;;18.40;65.80;;;;;;5362661;26;1805;-72
2024/04/24 09:36:02;;;;;;;;;;;18.40;65.80;;;;;;5367818;26;1562;-72
2024/04/24 09:38:30;;;;;;;;;;;18.40;65.80;;;;;;5417839;26;1149;-72
2024/04/24 09:40:58;;;;;;;;;;;18.40;65.80;;;;;;5424802;26;1629;-72
2024/04/24 09:43:23;;;;;;;;;;;18.40;65.90;;;;;;5379145;26;1872;-72
2024/04/24 09:45:48;;;;;;;;;;;18.40;66.60;;;;;;5391924;26;1434;-73
2024/04/24 09:48:14;;;;;;;;;;;18.40;65.90;;;;;;5394297;26;1889;-73
2024/04/24 09:50:40;;;;;;;;;;;18.40;65.90;;;;;;5391357;26;2419;-72
2024/04/24 09:53:06;;;;;;;;;;;18.40;65.90;;;;;;5392186;26;1749;-72
2024/04/24 09:55:32;;;;;;;;;;;18.40;66.00;;;;;;5389783;26;1892;-71
2024/04/24 09:57:57;;;;;;;;;;;18.40;66.00;;;;;;5416786;26;1812;-72
2024/04/24 10:00:23;;;;;;;;;;;18.40;66.00;;;;;;5364069;26;897;-72
2024/04/24 10:02:48;;;;;;;;;;;18.40;66.00;;;;;;5379017;26;1189;-71
2024/04/24 10:05:20;;;;;;;;;;;18.40;65.90;;;;;;5373342;26;875;-72
2024/04/24 10:07:49;;;;;;;;;;;18.40;65.90;;;;;;5400243;26;1822;-72
2024/04/24 10:10:15;;;;;;;;;;;18.40;65.90;;;;;;5379931;26;1592;-73
2024/04/24 10:12:44;;;;;;;;;;;18.40;65.80;;;;;;5366383;26;1745;-71
2024/04/24 10:15:11;;;;;;;;;;;18.40;65.80;;;;;;5418495;26;1883;-72
2024/04/24 10:17:37;;;;;;;;;;;18.50;65.80;;;;;;5365516;26;1935;-71
2024/04/24 10:20:03;;;;;;;;;;;18.40;65.70;;;;;;5395099;26;1825;-71
2024/04/24 10:22:30;;;;;;;;;;;18.40;65.70;;;;;;5394068;26;1963;-70
2024/04/24 10:24:56;;;;;;;;;;;18.50;66.50;;;;;;5393952;26;1885;-72
2024/04/24 10:27:21;;;;;;;;;;;18.50;65.70;;;;;;5419224;26;1890;-71
2024/04/24 10:29:48;;;;;;;;;;;18.50;65.60;;;;;;5396059;26;1712;-70
2024/04/24 10:32:13;;;;;;;;;;;18.50;65.60;;;;;;5362962;26;1797;-72
2024/04/24 10:34:39;;;;;;;;;;;18.50;65.70;;;;;;5393397;26;2167;-72
2024/04/24 10:37:04;;;;;;;;;;;18.50;65.50;;;;;;5338347;26;1782;-72
2024/04/24 10:39:39;;;;;;;;;;;18.50;65.50;;;;;;5394074;26;1840;-72
2024/04/24 10:42:04;;;;;;;;;;;18.50;66.30;;;;;;5394446;26;1374;-72
2024/04/24 10:44:30;;;;;;;;;;;18.50;65.50;;;;;;5366141;26;2071;-72
2024/04/24 10:46:55;;;;;;;;;;;18.50;65.50;;;;;;5392366;26;1979;-72
2024/04/24 10:49:25;;;;;;;;;;;18.50;65.40;;;;;;5416367;26;1548;-72
2024/04/24 10:51:51;;;;;;;;;;;18.50;65.40;;;;;;5418449;26;2028;-72
2024/04/24 10:54:16;;;;;;;;;;;18.50;65.40;;;;;;5392547;26;1556;-72
2024/04/24 10:56:43;;;;;;;;;;;18.50;65.40;;;;;;5397046;26;1639;-71
2024/04/24 10:59:08;;;;;;;;;;;18.60;65.50;;;;;;5366880;26;1821;-73
2024/04/24 11:01:34;;;;;;;;;;;18.50;65.40;;;;;;5367883;26;2037;-73
2024/04/24 11:03:59;;;;;;;;;;;18.60;65.40;;;;;;5391170;26;1754;-71
2024/04/24 11:06:25;;;;;;;;;;;18.60;65.40;;;;;;5389733;26;1907;-70
2024/04/24 11:08:50;;;;;;;;;;;18.50;65.30;;;;;;5362870;26;1763;-71
2024/04/24 11:11:28;;;;;;;;;;;18.50;65.30;;;;;;5395749;26;1855;-71
2024/04/24 11:13:59;;;;;;;;;;;18.60;65.40;;;;;;5390213;26;1867;-71
2024/04/24 11:16:25;;;;;;;;;;;18.60;65.40;;;;;;5386474;26;1917;-71
2024/04/24 11:18:50;;;;;;;;;;;18.50;65.30;;;;;;5357937;26;1810;-71
2024/04/24 11:21:23;;;;;;;;;;;18.60;65.40;;;;;;5396133;26;2236;-71
2024/04/24 11:23:49;;;;;;;;;;;18.60;65.40;;;;;;5357976;26;1984;-71
2024/04/24 11:26:15;;;;;;;;;;;18.60;65.40;;;;;;5388082;26;1905;-71
2024/04/24 11:28:40;;;;;;;;;;;18.50;65.30;;;;;;5394285;26;1902;-71
2024/04/24 11:31:06;;;;;;;;;;;18.60;65.40;;;;;;5395443;26;1783;-71
2024/04/24 11:33:31;;;;;;;;;;;18.50;65.40;;;;;;5362745;26;1767;-71
2024/04/24 11:35:57;;;;;;;;;;;18.50;66.10;;;;;;5389763;26;1831;-70
2024/04/24 11:38:22;;;;;;;;;;;18.60;65.40;;;;;;5422529;26;1990;-71
2024/04/24 11:40:48;;;;;;;;;;;18.60;65.40;;;;;;5359039;26;1498;-71
2024/04/24 11:43:13;;;;;;;;;;;18.50;65.40;;;;;;5393346;26;1945;-71
2024/04/24 11:45:39;;;;;;;;;;;18.50;65.40;;;;;;5358978;26;1926;-71
2024/04/24 11:48:06;;;;;;;;;;;18.60;65.50;;;;;;5388533;26;1852;-71
2024/04/24 11:50:31;;;;;;;;;;;18.50;65.40;;;;;;5361385;26;1831;-70
2024/04/24 11:52:57;;;;;;;;;;;18.50;65.40;;;;;;5419021;26;1791;-71
2024/04/24 11:55:23;;;;;;;;;;;18.50;65.50;;;;;;5393337;26;1615;-71
2024/04/24 11:57:48;;;;;;;;;;;18.50;65.50;;;;;;5361640;26;1806;-70
2024/04/24 12:00:14;;;;;;;;;;;18.50;65.50;;;;;;5394324;26;1883;-70
2024/04/24 12:02:39;;;;;;;;;;;18.50;65.50;;;;;;5364087;26;2046;-70
2024/04/24 12:05:05;;;;;;;;;;;18.50;65.50;;;;;;5416738;26;2034;-71
2024/04/24 12:07:31;;;;;;;;;;;18.50;65.60;;;;;;5425281;26;1879;-71
2024/04/24 12:09:57;;;;;;;;;;;18.50;65.60;;;;;;5363957;26;1290;-71
2024/04/24 12:12:22;;;;;;;;;;;18.50;65.60;;;;;;5380217;26;1904;-71
2024/04/24 12:14:48;;;;;;;;;;;18.50;65.70;;;;;;5363482;26;1779;-70
2024/04/24 12:17:13;;;;;;;;;;;18.50;65.70;;;;;;5406879;26;1353;-71
2024/04/24 12:19:39;;;;;;;;;;;18.50;65.70;;;;;;5368413;26;2222;-71
2024/04/24 12:22:05;;;;;;;;;;;18.50;65.70;;;;;;5366022;26;1774;-71
2024/04/24 12:24:32;;;;;;;;;;;18.50;65.80;;;;;;5422494;26;1853;-71
2024/04/24 12:26:58;;;;;;;;;;;18.50;65.80;;;;;;5418569;26;1908;-71
2024/04/24 12:29:23;;;;;;;;;;;18.50;65.80;;;;;;5397423;26;1632;-71
2024/04/24 12:31:48;;;;;;;;;;;18.40;65.80;;;;;;5393598;26;1771;-72
2024/04/24 12:34:14;;;;;;;;;;;18.40;65.80;;;;;;5364295;26;1883;-71
2024/04/24 12:36:40;;;;;;;;;;;18.50;65.90;;;;;;5392699;26;2064;-71
2024/04/24 12:39:05;;;;;;;;;;;18.40;65.80;;;;;;5357841;26;2046;-71
2024/04/24 12:41:35;;;;;;;;;;;18.40;65.80;;;;;;5423107;26;2024;-71
2024/04/24 12:44:01;;;;;;;;;;;18.40;65.80;;;;;;5421031;26;1943;-71
2024/04/24 12:46:27;;;;;;;;;;;18.40;65.90;;;;;;5394120;26;1919;-71
2024/04/24 12:48:54;;;;;;;;;;;18.40;65.90;;;;;;5398785;26;1857;-71
2024/04/24 12:51:19;;;;;;;;;;;18.40;65.90;;;;;;5391240;26;1760;-71
2024/04/24 12:53:45;;;;;;;;;;;18.40;65.90;;;;;;5395979;26;1791;-71
2024/04/24 12:56:10;;;;;;;;;;;18.40;66.00;;;;;;5395907;26;1784;-71
2024/04/24 12:58:36;;;;;;;;;;;18.40;66.00;;;;;;5398807;26;1890;-71
2024/04/24 13:01:01;;;;;;;;;;;18.40;66.00;;;;;;5363479;26;1634;-71
2024/04/24 13:03:27;;;;;;;;;;;18.40;66.00;;;;;;5395110;26;1783;-71
2024/04/24 13:05:52;;;;;;;;;;;18.40;66.00;;;;;;5423365;26;1918;-71
2024/04/24 13:08:18;;;;;;;;;;;18.40;66.00;;;;;;5393226;26;1840;-71
2024/04/24 13:10:43;;;;;;;;;;;18.40;66.00;;;;;;5391599;26;1753;-70
2024/04/24 13:13:09;;;;;;;;;;;18.40;66.00;;;;;;5394305;26;1734;-71
2024/04/24 13:15:34;;;;;;;;;;;18.40;66.00;;;;;;5393823;26;1549;-70
2024/04/24 13:18:00;;;;;;;;;;;18.40;66.00;;;;;;5367870;26;1328;-71
2024/04/24 13:20:25;;;;;;;;;;;18.40;66.10;;;;;;5422523;26;1470;-71
2024/04/24 13:22:50;;;;;;;;;;;18.40;66.10;;;;;;5414872;26;1446;-71
2024/04/24 13:25:16;;;;;;;;;;;18.40;66.10;;;;;;5426970;26;1203;-72
2024/04/24 13:27:42;;;;;;;;;;;18.40;66.10;;;;;;5399915;26;1845;-71
2024/04/24 13:30:09;;;;;;;;;;;18.40;66.10;;;;;;5365272;26;1761;-72
2024/04/24 13:32:35;;;;;;;;;;;18.40;66.10;;;;;;5367041;26;2054;-71
2024/04/24 13:35:01;;;;;;;;;;;18.40;66.10;;;;;;5422409;26;1797;-72
2024/04/24 13:37:26;;;;;;;;;;;18.30;66.00;;;;;;5394102;26;1841;-72
2024/04/24 13:39:52;;;;;;;;;;;18.40;66.10;;;;;;5392046;26;1866;-71
2024/04/24 13:42:17;;;;;;;;;;;18.40;66.90;;;;;;5376408;26;1887;-70
2024/04/24 13:44:45;;;;;;;;;;;18.30;66.10;;;;;;5389996;26;1786;-70
2024/04/24 13:47:12;;;;;;;;;;;18.40;66.20;;;;;;5395509;26;1889;-71
2024/04/24 13:49:37;;;;;;;;;;;18.40;66.20;;;;;;5396784;26;1901;-71
2024/04/24 13:52:03;;;;;;;;;;;18.30;66.10;;;;;;5394275;26;1816;-70
2024/04/24 13:54:28;;;;;;;;;;;18.40;66.20;;;;;;5395309;26;1872;-71
2024/04/24 13:56:55;;;;;;;;;;;18.40;66.20;;;;;;5395949;26;1754;-71
2024/04/24 13:59:21;;;;;;;;;;;18.30;66.20;;;;;;5397055;26;1764;-71
2024/04/24 14:01:49;;;;;;;;;;;18.40;66.30;;;;;;5365446;26;1950;-71
2024/04/24 14:04:15;;;;;;;;;;;18.30;66.20;;;;;;5395621;26;1897;-71
2024/04/24 14:06:41;;;;;;;;;;;18.40;66.30;;;;;;5395990;26;2077;-71
2024/04/24 14:09:06;;;;;;;;;;;18.30;66.20;;;;;;5395062;26;1633;-70
2024/04/24 14:11:32;;;;;;;;;;;18.30;66.30;;;;;;5389846;26;1877;-71
2024/04/24 14:13:57;;;;;;;;;;;18.30;66.30;;;;;;5389950;26;1647;-71
2024/04/24 14:16:22;;;;;;;;;;;18.30;66.30;;;;;;5392253;26;1761;-71
2024/04/24 14:18:48;;;;;;;;;;;18.30;66.30;;;;;;5390496;26;1934;-71
2024/04/24 14:21:14;;;;;;;;;;;18.30;66.40;;;;;;5398623;26;1405;-71
2024/04/24 14:23:39;;;;;;;;;;;18.30;66.30;;;;;;5367345;26;1864;-71
2024/04/24 14:26:05;;;;;;;;;;;18.30;66.40;;;;;;5397550;26;1501;-70